HE27 weather

Uthman Air Base
Matruh Governorate, Egypt

Public forecast

Using degrees Celsius for public forecast. Weather courtesy of forecast.io.

METAR (pilot weather report)

Closest report is Mersa Matruh Airport, 135.8 nm (251.5 km) NE. Retrieved 2019/05/21 00:00 UTC (48 minutes ago):

HEMM 210000Z 13005KT CAVOK 19/14 Q1014 NOSIG

TAF (pilot weather forecast)

Forecast is more than 12 hours old.

Closest forecast is Mersa Matruh Airport, 135.8 nm (251.5 km) NE. Retrieved 2019/05/20 00:00 UTC (1 day ago):

TAF HEMM 202300Z 2100/2206 15010KT CAVOK